sensor_id;sensor_type;location;lat;lon;timestamp;pressure;altitude;pressure_sealevel;temperature;humidity
71666;BME280;59503;53.486;10.196;2022-10-16T00:00:35;100991.03;;;11.72;100.00
71666;BME280;59503;53.486;10.196;2022-10-16T00:03:02;100984.00;;;11.71;100.00
71666;BME280;59503;53.486;10.196;2022-10-16T00:05:27;100983.53;;;11.66;100.00
71666;BME280;59503;53.486;10.196;2022-10-16T00:07:52;100990.97;;;11.69;100.00
71666;BME280;59503;53.486;10.196;2022-10-16T00:10:18;100995.19;;;11.66;100.00
71666;BME280;59503;53.486;10.196;2022-10-16T00:12:43;101001.00;;;11.65;100.00
71666;BME280;59503;53.486;10.196;2022-10-16T00:15:09;100990.75;;;11.58;100.00
71666;BME280;59503;53.486;10.196;2022-10-16T00:17:34;100986.03;;;11.55;100.00
71666;BME280;59503;53.486;10.196;2022-10-16T00:20:00;101005.16;;;11.59;100.00
71666;BME280;59503;53.486;10.196;2022-10-16T00:22:25;101001.50;;;11.51;100.00
71666;BME280;59503;53.486;10.196;2022-10-16T00:24:51;100998.44;;;11.53;100.00
71666;BME280;59503;53.486;10.196;2022-10-16T00:27:16;100993.63;;;11.46;100.00
71666;BME280;59503;53.486;10.196;2022-10-16T00:29:42;101004.97;;;11.48;100.00
71666;BME280;59503;53.486;10.196;2022-10-16T00:32:08;101004.97;;;11.48;100.00
71666;BME280;59503;53.486;10.196;2022-10-16T00:34:34;101004.53;;;11.46;100.00
71666;BME280;59503;53.486;10.196;2022-10-16T00:36:59;101010.78;;;11.47;100.00
71666;BME280;59503;53.486;10.196;2022-10-16T00:39:25;101009.06;;;11.39;100.00
71666;BME280;59503;53.486;10.196;2022-10-16T00:41:51;101014.16;;;11.40;100.00
71666;BME280;59503;53.486;10.196;2022-10-16T00:47:17;101012.91;;;11.38;100.00
71666;BME280;59503;53.486;10.196;2022-10-16T00:49:45;101018.25;;;11.31;100.00
71666;BME280;59503;53.486;10.196;2022-10-16T00:52:11;101025.13;;;11.24;100.00
71666;BME280;59503;53.486;10.196;2022-10-16T00:54:38;101029.72;;;11.20;100.00
71666;BME280;59503;53.486;10.196;2022-10-16T00:57:05;101015.69;;;11.18;100.00
71666;BME280;59503;53.486;10.196;2022-10-16T00:59:41;101027.28;;;11.15;100.00
71666;BME280;59503;53.486;10.196;2022-10-16T01:02:09;101027.28;;;11.15;100.00
71666;BME280;59503;53.486;10.196;2022-10-16T01:04:38;101025.53;;;11.07;100.00
71666;BME280;59503;53.486;10.196;2022-10-16T01:07:16;101026.19;;;11.01;100.00
71666;BME280;59503;53.486;10.196;2022-10-16T01:10:04;101030.13;;;11.03;100.00
71666;BME280;59503;53.486;10.196;2022-10-16T01:15:13;101036.41;;;11.07;100.00
71666;BME280;59503;53.486;10.196;2022-10-16T01:20:56;101042.66;;;11.08;100.00
71666;BME280;59503;53.486;10.196;2022-10-16T01:31:31;101053.03;;;11.02;100.00
71666;BME280;59503;53.486;10.196;2022-10-16T01:34:04;101045.31;;;11.04;100.00
71666;BME280;59503;53.486;10.196;2022-10-16T01:36:37;101053.03;;;11.02;100.00
71666;BME280;59503;53.486;10.196;2022-10-16T01:39:06;101044.03;;;10.98;100.00
71666;BME280;59503;53.486;10.196;2022-10-16T01:41:47;101043.44;;;10.89;100.00
71666;BME280;59503;53.486;10.196;2022-10-16T01:44:17;101042.28;;;10.90;100.00
71666;BME280;59503;53.486;10.196;2022-10-16T01:46:47;101046.22;;;10.93;100.00
71666;BME280;59503;53.486;10.196;2022-10-16T01:49:14;101055.88;;;10.90;100.00
71666;BME280;59503;53.486;10.196;2022-10-16T01:51:40;101045.28;;;10.85;100.00
71666;BME280;59503;53.486;10.196;2022-10-16T01:54:09;101042.06;;;10.80;100.00
71666;BME280;59503;53.486;10.196;2022-10-16T01:56:37;101048.22;;;10.77;100.00
71666;BME280;59503;53.486;10.196;2022-10-16T01:59:09;101048.13;;;10.73;100.00
71666;BME280;59503;53.486;10.196;2022-10-16T02:01:37;101043.94;;;10.60;100.00
71666;BME280;59503;53.486;10.196;2022-10-16T02:04:11;101054.91;;;10.64;100.00
71666;BME280;59503;53.486;10.196;2022-10-16T02:06:39;101055.69;;;10.64;100.00
71666;BME280;59503;53.486;10.196;2022-10-16T02:09:04;101054.13;;;10.63;100.00
71666;BME280;59503;53.486;10.196;2022-10-16T02:11:30;101049.03;;;10.62;100.00
71666;BME280;59503;53.486;10.196;2022-10-16T02:14:01;101052.09;;;10.60;100.00
71666;BME280;59503;53.486;10.196;2022-10-16T02:16:38;101056.69;;;10.56;100.00
71666;BME280;59503;53.486;10.196;2022-10-16T02:19:05;101039.06;;;10.50;100.00
71666;BME280;59503;53.486;10.196;2022-10-16T02:21:56;101063.25;;;10.55;100.00
71666;BME280;59503;53.486;10.196;2022-10-16T02:27:13;101048.09;;;10.54;100.00
71666;BME280;59503;53.486;10.196;2022-10-16T02:29:48;101056.94;;;10.51;100.00
71666;BME280;59503;53.486;10.196;2022-10-16T02:32:19;101053.78;;;10.49;100.00
71666;BME280;59503;53.486;10.196;2022-10-16T02:34:47;101051.44;;;10.48;100.00
71666;BME280;59503;53.486;10.196;2022-10-16T02:37:14;101056.16;;;10.51;100.00
71666;BME280;59503;53.486;10.196;2022-10-16T02:39:41;101056.78;;;10.44;100.00
71666;BME280;59503;53.486;10.196;2022-10-16T02:42:12;101061.78;;;10.42;100.00
71666;BME280;59503;53.486;10.196;2022-10-16T02:44:38;101049.69;;;10.40;100.00
71666;BME280;59503;53.486;10.196;2022-10-16T02:47:03;101054.59;;;10.50;100.00
71666;BME280;59503;53.486;10.196;2022-10-16T02:49:29;101049.28;;;10.57;100.00
71666;BME280;59503;53.486;10.196;2022-10-16T02:51:54;101049.38;;;10.60;100.00
71666;BME280;59503;53.486;10.196;2022-10-16T02:54:20;101039.22;;;10.57;100.00
71666;BME280;59503;53.486;10.196;2022-10-16T02:56:45;101054.59;;;10.50;100.00
71666;BME280;59503;53.486;10.196;2022-10-16T02:59:11;101049.78;;;10.43;100.00
71666;BME280;59503;53.486;10.196;2022-10-16T03:01:36;101051.34;;;10.44;100.00
71666;BME280;59503;53.486;10.196;2022-10-16T03:04:02;101055.03;;;10.36;100.00
71666;BME280;59503;53.486;10.196;2022-10-16T03:06:27;101053.03;;;10.33;100.00
71666;BME280;59503;53.486;10.196;2022-10-16T03:08:52;101051.72;;;10.27;100.00
71666;BME280;59503;53.486;10.196;2022-10-16T03:11:18;101052.41;;;10.24;100.00
71666;BME280;59503;53.486;10.196;2022-10-16T03:13:43;101055.13;;;10.24;100.00
71666;BME280;59503;53.486;10.196;2022-10-16T03:16:09;101052.25;;;10.17;100.00
71666;BME280;59503;53.486;10.196;2022-10-16T03:18:34;101045.84;;;10.10;100.00
71666;BME280;59503;53.486;10.196;2022-10-16T03:21:00;101047.78;;;10.09;100.00
71666;BME280;59503;53.486;10.196;2022-10-16T03:23:26;101051.84;;;10.03;100.00
71666;BME280;59503;53.486;10.196;2022-10-16T03:25:51;101051.00;;;9.99;100.00
71666;BME280;59503;53.486;10.196;2022-10-16T03:28:17;101050.00;;;9.91;100.00
71666;BME280;59503;53.486;10.196;2022-10-16T03:30:43;101054.13;;;9.85;100.00
71666;BME280;59503;53.486;10.196;2022-10-16T03:33:09;101052.31;;;9.89;100.00
71666;BME280;59503;53.486;10.196;2022-10-16T03:35:34;101056.22;;;9.92;100.00
71666;BME280;59503;53.486;10.196;2022-10-16T03:38:00;101039.94;;;9.92;100.00
71666;BME280;59503;53.486;10.196;2022-10-16T03:40:26;101042.47;;;9.85;100.00
71666;BME280;59503;53.486;10.196;2022-10-16T03:42:52;101060.44;;;9.89;100.00
71666;BME280;59503;53.486;10.196;2022-10-16T03:45:20;101049.81;;;9.84;100.00
71666;BME280;59503;53.486;10.196;2022-10-16T03:47:45;101057.66;;;9.86;100.00
71666;BME280;59503;53.486;10.196;2022-10-16T03:50:11;101058.75;;;9.85;100.00
71666;BME280;59503;53.486;10.196;2022-10-16T03:52:36;101061.13;;;9.86;100.00
71666;BME280;59503;53.486;10.196;2022-10-16T03:55:02;101057.66;;;9.86;100.00
71666;BME280;59503;53.486;10.196;2022-10-16T03:57:27;101057.53;;;9.98;100.00
71666;BME280;59503;53.486;10.196;2022-10-16T03:59:53;101068.84;;;10.00;100.00
71666;BME280;59503;53.486;10.196;2022-10-16T04:02:18;101066.56;;;10.02;100.00
71666;BME280;59503;53.486;10.196;2022-10-16T04:04:44;101058.06;;;10.03;100.00
71666;BME280;59503;53.486;10.196;2022-10-16T04:07:09;101069.94;;;10.11;100.00
71666;BME280;59503;53.486;10.196;2022-10-16T04:09:34;101081.69;;;10.15;100.00
71666;BME280;59503;53.486;10.196;2022-10-16T04:12:00;101081.94;;;10.10;100.00
71666;BME280;59503;53.486;10.196;2022-10-16T04:14:25;101083.31;;;10.04;100.00
71666;BME280;59503;53.486;10.196;2022-10-16T04:16:51;101095.88;;;10.09;100.00
71666;BME280;59503;53.486;10.196;2022-10-16T04:19:16;101092.59;;;10.03;100.00
71666;BME280;59503;53.486;10.196;2022-10-16T04:21:42;101094.00;;;9.97;100.00
71666;BME280;59503;53.486;10.196;2022-10-16T04:24:07;101111.69;;;9.91;100.00
71666;BME280;59503;53.486;10.196;2022-10-16T04:26:33;101095.91;;;9.81;100.00
71666;BME280;59503;53.486;10.196;2022-10-16T04:28:58;101102.91;;;9.82;100.00
71666;BME280;59503;53.486;10.196;2022-10-16T04:31:23;101103.16;;;9.77;100.00
71666;BME280;59503;53.486;10.196;2022-10-16T04:33:49;101104.31;;;9.76;100.00
71666;BME280;59503;53.486;10.196;2022-10-16T04:36:14;101103.66;;;9.67;100.00
71666;BME280;59503;53.486;10.196;2022-10-16T04:38:40;101101.19;;;9.62;100.00
71666;BME280;59503;53.486;10.196;2022-10-16T04:41:06;101117.03;;;9.60;100.00
71666;BME280;59503;53.486;10.196;2022-10-16T04:43:32;101118.63;;;9.61;100.00
71666;BME280;59503;53.486;10.196;2022-10-16T04:45:58;101123.59;;;9.59;100.00
71666;BME280;59503;53.486;10.196;2022-10-16T04:48:23;101118.88;;;9.56;100.00
71666;BME280;59503;53.486;10.196;2022-10-16T04:50:49;101122.00;;;9.58;100.00
71666;BME280;59503;53.486;10.196;2022-10-16T04:53:14;101125.16;;;9.60;100.00
71666;BME280;59503;53.486;10.196;2022-10-16T04:55:41;101129.13;;;9.62;100.00
71666;BME280;59503;53.486;10.196;2022-10-16T04:58:07;101136.94;;;9.64;100.00
71666;BME280;59503;53.486;10.196;2022-10-16T05:00:33;101128.09;;;9.67;100.00
71666;BME280;59503;53.486;10.196;2022-10-16T05:02:59;101120.66;;;9.64;100.00
71666;BME280;59503;53.486;10.196;2022-10-16T05:05:26;101108.69;;;9.53;100.00
71666;BME280;59503;53.486;10.196;2022-10-16T05:07:51;101120.78;;;9.55;100.00
71666;BME280;59503;53.486;10.196;2022-10-16T05:10:17;101121.63;;;9.44;100.00
71666;BME280;59503;53.486;10.196;2022-10-16T05:12:42;101139.34;;;9.53;100.00
71666;BME280;59503;53.486;10.196;2022-10-16T05:15:08;101133.34;;;9.48;100.00
71666;BME280;59503;53.486;10.196;2022-10-16T05:17:34;101132.03;;;9.42;100.00
71666;BME280;59503;53.486;10.196;2022-10-16T05:19:59;101138.00;;;9.47;100.00
71666;BME280;59503;53.486;10.196;2022-10-16T05:22:25;101139.94;;;9.47;100.00
71666;BME280;59503;53.486;10.196;2022-10-16T05:24:50;101137.22;;;9.47;100.00
71666;BME280;59503;53.486;10.196;2022-10-16T05:27:15;101150.09;;;9.50;100.00
71666;BME280;59503;53.486;10.196;2022-10-16T05:29:46;101152.69;;;9.46;100.00
71666;BME280;59503;53.486;10.196;2022-10-16T05:32:13;101140.97;;;9.42;100.00
71666;BME280;59503;53.486;10.196;2022-10-16T05:34:38;101149.34;;;9.37;100.00
71666;BME280;59503;53.486;10.196;2022-10-16T05:37:04;101159.50;;;9.40;100.00
71666;BME280;59503;53.486;10.196;2022-10-16T05:39:30;101152.63;;;9.31;100.00
71666;BME280;59503;53.486;10.196;2022-10-16T05:41:55;101165.53;;;9.34;100.00
71666;BME280;59503;53.486;10.196;2022-10-16T05:44:20;101160.09;;;9.34;100.00
71666;BME280;59503;53.486;10.196;2022-10-16T05:46:46;101152.19;;;9.29;100.00
71666;BME280;59503;53.486;10.196;2022-10-16T05:49:12;101139.75;;;9.28;100.00
71666;BME280;59503;53.486;10.196;2022-10-16T05:51:37;101150.22;;;9.41;100.00
71666;BME280;59503;53.486;10.196;2022-10-16T05:54:03;101153.63;;;9.38;100.00
71666;BME280;59503;53.486;10.196;2022-10-16T05:56:28;101156.44;;;9.42;100.00
71666;BME280;59503;53.486;10.196;2022-10-16T05:58:54;101157.38;;;9.34;100.00
71666;BME280;59503;53.486;10.196;2022-10-16T06:01:20;101168.91;;;9.31;100.00
71666;BME280;59503;53.486;10.196;2022-10-16T06:03:50;101166.09;;;9.27;100.00
71666;BME280;59503;53.486;10.196;2022-10-16T06:06:20;101167.56;;;9.25;100.00
71666;BME280;59503;53.486;10.196;2022-10-16T06:08:48;101176.38;;;9.22;100.00
71666;BME280;59503;53.486;10.196;2022-10-16T06:11:19;101177.06;;;9.19;100.00
71666;BME280;59503;53.486;10.196;2022-10-16T06:13:49;101179.97;;;9.26;100.00
71666;BME280;59503;53.486;10.196;2022-10-16T06:16:15;101188.34;;;9.33;100.00
71666;BME280;59503;53.486;10.196;2022-10-16T06:18:40;101186.53;;;9.37;100.00
71666;BME280;59503;53.486;10.196;2022-10-16T06:21:14;101171.81;;;9.38;100.00
71666;BME280;59503;53.486;10.196;2022-10-16T06:23:39;101157.28;;;9.30;100.00
71666;BME280;59503;53.486;10.196;2022-10-16T06:26:18;101178.59;;;9.44;100.00
71666;BME280;59503;53.486;10.196;2022-10-16T06:28:44;101181.97;;;9.41;100.00
71666;BME280;59503;53.486;10.196;2022-10-16T06:31:11;101186.63;;;9.40;100.00
71666;BME280;59503;53.486;10.196;2022-10-16T06:33:37;101195.47;;;9.37;100.00
71666;BME280;59503;53.486;10.196;2022-10-16T06:36:10;101192.19;;;9.32;100.00
71666;BME280;59503;53.486;10.196;2022-10-16T06:38:37;101193.88;;;9.36;100.00
71666;BME280;59503;53.486;10.196;2022-10-16T06:41:04;101190.47;;;9.39;100.00
71666;BME280;59503;53.486;10.196;2022-10-16T06:43:30;101195.91;;;9.39;100.00
71666;BME280;59503;53.486;10.196;2022-10-16T06:46:01;101191.63;;;9.38;100.00
71666;BME280;59503;53.486;10.196;2022-10-16T06:48:27;101207.66;;;9.43;100.00
71666;BME280;59503;53.486;10.196;2022-10-16T06:51:03;101214.53;;;9.41;100.00
71666;BME280;59503;53.486;10.196;2022-10-16T06:53:31;101214.88;;;9.39;100.00
71666;BME280;59503;53.486;10.196;2022-10-16T06:55:57;101212.16;;;9.39;100.00
71666;BME280;59503;53.486;10.196;2022-10-16T06:58:22;101214.09;;;9.51;100.00
71666;BME280;59503;53.486;10.196;2022-10-16T07:00:48;101223.31;;;9.74;100.00
71666;BME280;59503;53.486;10.196;2022-10-16T07:03:14;101206.91;;;9.98;100.00
71666;BME280;59503;53.486;10.196;2022-10-16T07:05:41;101221.97;;;10.23;100.00
71666;BME280;59503;53.486;10.196;2022-10-16T07:08:07;101221.41;;;10.45;100.00
71666;BME280;59503;53.486;10.196;2022-10-16T07:10:33;101219.34;;;10.70;100.00
71666;BME280;59503;53.486;10.196;2022-10-16T07:12:59;101235.28;;;11.02;100.00
71666;BME280;59503;53.486;10.196;2022-10-16T07:15:25;101237.38;;;11.24;100.00
71666;BME280;59503;53.486;10.196;2022-10-16T07:17:51;101228.09;;;11.45;100.00
71666;BME280;59503;53.486;10.196;2022-10-16T07:20:17;101223.72;;;11.56;100.00
71666;BME280;59503;53.486;10.196;2022-10-16T07:22:42;101240.94;;;11.79;100.00
71666;BME280;59503;53.486;10.196;2022-10-16T07:25:08;101245.97;;;11.96;100.00
71666;BME280;59503;53.486;10.196;2022-10-16T07:27:33;101233.94;;;11.97;100.00
71666;BME280;59503;53.486;10.196;2022-10-16T07:29:59;101242.97;;;12.01;100.00
71666;BME280;59503;53.486;10.196;2022-10-16T07:32:24;101245.69;;;12.01;100.00
71666;BME280;59503;53.486;10.196;2022-10-16T07:34:51;101246.25;;;12.10;100.00
71666;BME280;59503;53.486;10.196;2022-10-16T07:37:17;101262.91;;;12.24;100.00
71666;BME280;59503;53.486;10.196;2022-10-16T07:39:42;101251.97;;;12.43;100.00
71666;BME280;59503;53.486;10.196;2022-10-16T07:42:08;101266.06;;;12.68;100.00
71666;BME280;59503;53.486;10.196;2022-10-16T07:44:33;101273.66;;;13.00;100.00
71666;BME280;59503;53.486;10.196;2022-10-16T07:46:58;101273.28;;;13.24;100.00
71666;BME280;59503;53.486;10.196;2022-10-16T07:49:24;101266.50;;;13.41;100.00
71666;BME280;59503;53.486;10.196;2022-10-16T07:51:49;101277.69;;;13.58;100.00
71666;BME280;59503;53.486;10.196;2022-10-16T07:54:15;101280.84;;;13.60;100.00
71666;BME280;59503;53.486;10.196;2022-10-16T07:56:40;101287.88;;;13.61;100.00
71666;BME280;59503;53.486;10.196;2022-10-16T07:59:06;101295.28;;;13.61;100.00
71666;BME280;59503;53.486;10.196;2022-10-16T08:01:31;101294.59;;;13.67;100.00
71666;BME280;59503;53.486;10.196;2022-10-16T08:03:57;101295.75;;;13.93;100.00
71666;BME280;59503;53.486;10.196;2022-10-16T08:06:22;101295.91;;;14.07;100.00
71666;BME280;59503;53.486;10.196;2022-10-16T08:08:48;101279.19;;;14.12;100.00
71666;BME280;59503;53.486;10.196;2022-10-16T08:11:14;101284.78;;;14.22;100.00
71666;BME280;59503;53.486;10.196;2022-10-16T08:13:40;101283.91;;;14.15;100.00
71666;BME280;59503;53.486;10.196;2022-10-16T08:16:07;101296.00;;;14.14;100.00
71666;BME280;59503;53.486;10.196;2022-10-16T08:18:37;101303.47;;;14.17;100.00
71666;BME280;59503;53.486;10.196;2022-10-16T08:21:04;101301.94;;;14.19;100.00
71666;BME280;59503;53.486;10.196;2022-10-16T08:23:30;101305.78;;;14.15;100.00
71666;BME280;59503;53.486;10.196;2022-10-16T08:26:02;101305.69;;;14.08;100.00
71666;BME280;59503;53.486;10.196;2022-10-16T08:28:28;101304.06;;;14.03;100.00
71666;BME280;59503;53.486;10.196;2022-10-16T08:30:53;101304.75;;;13.97;100.00
71666;BME280;59503;53.486;10.196;2022-10-16T08:33:19;101309.41;;;13.93;100.00
71666;BME280;59503;53.486;10.196;2022-10-16T08:35:52;101307.16;;;14.02;100.00
71666;BME280;59503;53.486;10.196;2022-10-16T08:38:18;101305.56;;;14.27;100.00
71666;BME280;59503;53.486;10.196;2022-10-16T08:40:44;101306.28;;;14.57;99.62
71666;BME280;59503;53.486;10.196;2022-10-16T08:49:05;101311.09;;;15.04;95.06
71666;BME280;59503;53.486;10.196;2022-10-16T08:54:03;101325.78;;;15.32;95.41
71666;BME280;59503;53.486;10.196;2022-10-16T08:56:29;101308.69;;;15.42;95.49
71666;BME280;59503;53.486;10.196;2022-10-16T08:58:57;101300.56;;;15.56;93.88
71666;BME280;59503;53.486;10.196;2022-10-16T09:01:28;101309.63;;;15.64;92.58
71666;BME280;59503;53.486;10.196;2022-10-16T09:12:39;101321.72;;;16.31;87.25
71666;BME280;59503;53.486;10.196;2022-10-16T09:15:33;101330.09;;;16.59;87.96
71666;BME280;59503;53.486;10.196;2022-10-16T09:18:09;101334.44;;;16.71;84.58
71666;BME280;59503;53.486;10.196;2022-10-16T09:23:32;101350.38;;;16.41;88.24
71666;BME280;59503;53.486;10.196;2022-10-16T09:25:59;101339.75;;;16.32;86.72
71666;BME280;59503;53.486;10.196;2022-10-16T09:28:25;101338.97;;;16.32;87.22
71666;BME280;59503;53.486;10.196;2022-10-16T09:30:50;101349.16;;;16.28;89.32
71666;BME280;59503;53.486;10.196;2022-10-16T09:33:19;101356.50;;;16.13;90.29
71666;BME280;59503;53.486;10.196;2022-10-16T09:35:56;101358.84;;;16.14;88.21
71666;BME280;59503;53.486;10.196;2022-10-16T09:38:27;101359.63;;;16.11;86.69
71666;BME280;59503;53.486;10.196;2022-10-16T09:40:54;101348.25;;;16.09;84.92
71666;BME280;59503;53.486;10.196;2022-10-16T09:48:30;101365.81;;;15.94;88.31
71666;BME280;59503;53.486;10.196;2022-10-16T09:51:02;101362.66;;;15.89;87.86
71666;BME280;59503;53.486;10.196;2022-10-16T09:53:42;101360.69;;;15.93;88.67
71666;BME280;59503;53.486;10.196;2022-10-16T09:56:10;101374.16;;;16.12;87.35
71666;BME280;59503;53.486;10.196;2022-10-16T09:58:42;101362.78;;;16.13;86.17
71666;BME280;59503;53.486;10.196;2022-10-16T10:01:13;101378.03;;;16.07;83.20
71666;BME280;59503;53.486;10.196;2022-10-16T10:03:41;101370.25;;;16.16;83.47
71666;BME280;59503;53.486;10.196;2022-10-16T10:06:21;101379.66;;;16.15;84.72
71666;BME280;59503;53.486;10.196;2022-10-16T10:14:17;101391.72;;;16.04;87.39
71666;BME280;59503;53.486;10.196;2022-10-16T10:16:43;101388.19;;;16.03;85.06
71666;BME280;59503;53.486;10.196;2022-10-16T10:19:15;101400.38;;;16.09;83.56
71666;BME280;59503;53.486;10.196;2022-10-16T10:21:40;101400.38;;;16.09;83.68
71666;BME280;59503;53.486;10.196;2022-10-16T10:24:12;101398.41;;;16.10;82.59
71666;BME280;59503;53.486;10.196;2022-10-16T10:26:38;101389.84;;;16.18;82.13
71666;BME280;59503;53.486;10.196;2022-10-16T10:29:32;101403.13;;;16.13;82.32
71666;BME280;59503;53.486;10.196;2022-10-16T10:40:30;101409.38;;;16.06;82.63
71666;BME280;59503;53.486;10.196;2022-10-16T10:43:10;101410.13;;;16.03;81.42
71666;BME280;59503;53.486;10.196;2022-10-16T10:45:53;101417.22;;;16.11;81.17
71666;BME280;59503;53.486;10.196;2022-10-16T10:48:34;101421.56;;;16.12;81.09
71666;BME280;59503;53.486;10.196;2022-10-16T10:51:13;101422.41;;;16.24;80.54
71666;BME280;59503;53.486;10.196;2022-10-16T10:54:06;101424.78;;;16.29;77.41
71666;BME280;59503;53.486;10.196;2022-10-16T10:56:43;101426.34;;;16.23;78.21
71666;BME280;59503;53.486;10.196;2022-10-16T11:01:56;101422.09;;;16.36;75.16
71666;BME280;59503;53.486;10.196;2022-10-16T11:07:15;101434.25;;;16.42;76.65
71666;BME280;59503;53.486;10.196;2022-10-16T11:09:52;101433.19;;;16.57;77.19
71666;BME280;59503;53.486;10.196;2022-10-16T11:12:42;101427.69;;;16.57;74.91
71666;BME280;59503;53.486;10.196;2022-10-16T11:15:19;101422.19;;;16.53;74.33
71666;BME280;59503;53.486;10.196;2022-10-16T11:18:00;101435.47;;;16.44;76.89
71666;BME280;59503;53.486;10.196;2022-10-16T11:20:38;101424.16;;;16.49;74.11
71666;BME280;59503;53.486;10.196;2022-10-16T11:23:15;101434.25;;;16.42;75.90
71666;BME280;59503;53.486;10.196;2022-10-16T11:25:43;101424.50;;;16.44;76.24
71666;BME280;59503;53.486;10.196;2022-10-16T11:28:15;101426.44;;;16.44;76.37
71666;BME280;59503;53.486;10.196;2022-10-16T11:30:46;101412.63;;;16.26;75.27
71666;BME280;59503;53.486;10.196;2022-10-16T11:35:54;101439.38;;;16.43;75.80
71666;BME280;59503;53.486;10.196;2022-10-16T11:40:56;101451.25;;;16.58;74.34
71666;BME280;59503;53.486;10.196;2022-10-16T11:43:37;101446.53;;;16.62;76.59
71666;BME280;59503;53.486;10.196;2022-10-16T11:46:18;101444.31;;;16.88;72.70
71666;BME280;59503;53.486;10.196;2022-10-16T11:48:51;101455.28;;;16.92;74.13
71666;BME280;59503;53.486;10.196;2022-10-16T11:53:51;101451.84;;;17.16;71.95
71666;BME280;59503;53.486;10.196;2022-10-16T11:56:20;101454.66;;;17.30;69.68
71666;BME280;59503;53.486;10.196;2022-10-16T12:04:41;101476.22;;;17.24;72.13
71666;BME280;59503;53.486;10.196;2022-10-16T12:07:22;101478.19;;;17.31;71.49
71666;BME280;59503;53.486;10.196;2022-10-16T12:09:50;101468.75;;;17.18;71.34
71666;BME280;59503;53.486;10.196;2022-10-16T12:12:37;101484.38;;;17.07;70.73
71666;BME280;59503;53.486;10.196;2022-10-16T12:15:27;101485.16;;;17.04;71.49
71666;BME280;59503;53.486;10.196;2022-10-16T12:17:53;101494.66;;;17.13;70.96
71666;BME280;59503;53.486;10.196;2022-10-16T12:20:21;101498.91;;;17.07;70.91
71666;BME280;59503;53.486;10.196;2022-10-16T12:22:50;101505.19;;;17.01;72.13
71666;BME280;59503;53.486;10.196;2022-10-16T12:25:36;101489.03;;;16.89;73.88
71666;BME280;59503;53.486;10.196;2022-10-16T12:28:16;101491.38;;;16.87;72.64
71666;BME280;59503;53.486;10.196;2022-10-16T12:30:52;101491.03;;;16.95;72.00
71666;BME280;59503;53.486;10.196;2022-10-16T12:33:24;101503.19;;;16.94;73.57
71666;BME280;59503;53.486;10.196;2022-10-16T12:35:51;101500.09;;;17.06;72.05
71666;BME280;59503;53.486;10.196;2022-10-16T12:41:07;101503.25;;;17.15;74.20
71666;BME280;59503;53.486;10.196;2022-10-16T12:43:41;101509.97;;;17.21;72.02
71666;BME280;59503;53.486;10.196;2022-10-16T12:48:36;101509.63;;;17.40;71.63
71666;BME280;59503;53.486;10.196;2022-10-16T12:54:11;101525.41;;;17.61;70.81
71666;BME280;59503;53.486;10.196;2022-10-16T12:59:42;101536.06;;;17.91;68.93
71666;BME280;59503;53.486;10.196;2022-10-16T13:05:17;101532.91;;;18.20;66.68
71666;BME280;59503;53.486;10.196;2022-10-16T13:07:55;101541.94;;;18.31;66.49
71666;BME280;59503;53.486;10.196;2022-10-16T13:30:00;101573.00;;;18.00;63.31
71666;BME280;59503;53.486;10.196;2022-10-16T13:32:27;101565.50;;;17.76;64.89
71666;BME280;59503;53.486;10.196;2022-10-16T13:34:52;101573.34;;;17.67;65.86
71666;BME280;59503;53.486;10.196;2022-10-16T13:37:24;101584.75;;;17.76;65.45
71666;BME280;59503;53.486;10.196;2022-10-16T13:39:50;101585.56;;;17.84;65.50
71666;BME280;59503;53.486;10.196;2022-10-16T13:42:29;101573.00;;;17.90;66.01
71666;BME280;59503;53.486;10.196;2022-10-16T13:44:55;101582.81;;;18.01;63.31
71666;BME280;59503;53.486;10.196;2022-10-16T13:47:23;101589.91;;;17.99;63.01
71666;BME280;59503;53.486;10.196;2022-10-16T13:50:18;101597.75;;;17.97;62.17
71666;BME280;59503;53.486;10.196;2022-10-16T13:52:44;101598.56;;;17.97;63.10
71666;BME280;59503;53.486;10.196;2022-10-16T13:55:11;101607.19;;;18.03;65.19
71666;BME280;59503;53.486;10.196;2022-10-16T13:57:37;101602.88;;;17.95;65.35
71666;BME280;59503;53.486;10.196;2022-10-16T14:00:17;101607.59;;;17.87;65.71
71666;BME280;59503;53.486;10.196;2022-10-16T14:02:43;101609.13;;;17.81;65.13
71666;BME280;59503;53.486;10.196;2022-10-16T14:05:09;101608.72;;;17.72;64.63
71666;BME280;59503;53.486;10.196;2022-10-16T14:07:36;101612.22;;;17.55;67.08
71666;BME280;59503;53.486;10.196;2022-10-16T14:10:07;101606.22;;;17.39;67.08
71666;BME280;59503;53.486;10.196;2022-10-16T14:12:44;101623.03;;;17.23;66.58
71666;BME280;59503;53.486;10.196;2022-10-16T14:15:17;101626.53;;;17.13;65.50
71666;BME280;59503;53.486;10.196;2022-10-16T14:17:45;101626.44;;;16.99;67.54
71666;BME280;59503;53.486;10.196;2022-10-16T14:20:14;101639.69;;;16.87;68.37
71666;BME280;59503;53.486;10.196;2022-10-16T14:22:41;101641.16;;;16.74;68.10
71666;BME280;59503;53.486;10.196;2022-10-16T14:25:37;101638.78;;;16.69;68.66
71666;BME280;59503;53.486;10.196;2022-10-16T14:28:23;101648.44;;;17.03;66.45
71666;BME280;59503;53.486;10.196;2022-10-16T14:36:05;101660.41;;;16.77;68.14
71666;BME280;59503;53.486;10.196;2022-10-16T14:38:32;101659.19;;;16.71;68.53
71666;BME280;59503;53.486;10.196;2022-10-16T14:40:58;101669.28;;;16.60;70.73